createdAt,value
2023-02-06T00:01:30.524Z,59.70
2023-02-06T00:03:57.905Z,59.70
2023-02-06T00:06:24.930Z,59.70
2023-02-06T00:08:52.115Z,59.70
2023-02-06T00:11:19.401Z,59.80
2023-02-06T00:13:46.773Z,60.00
2023-02-06T00:16:25.496Z,60.10
2023-02-06T00:18:53.823Z,60.20
2023-02-06T00:21:22.140Z,60.10
2023-02-06T00:23:50.073Z,60.00
2023-02-06T00:26:17.651Z,60.10
2023-02-06T00:28:45.917Z,60.10
2023-02-06T00:31:13.932Z,59.90
2023-02-06T00:33:41.443Z,60.00
2023-02-06T00:36:09.165Z,59.70
2023-02-06T00:38:37.527Z,59.70
2023-02-06T00:41:04.888Z,59.90
2023-02-06T00:43:32.187Z,60.00
2023-02-06T00:45:59.420Z,60.00
2023-02-06T00:48:26.845Z,60.10
2023-02-06T00:50:54.467Z,60.10
2023-02-06T00:53:21.634Z,60.00
2023-02-06T00:55:48.629Z,60.00
2023-02-06T00:58:15.712Z,60.00
2023-02-06T01:00:44.168Z,59.90
2023-02-06T01:03:11.753Z,60.00
2023-02-06T01:05:38.996Z,60.10
2023-02-06T01:08:06.158Z,60.10
2023-02-06T01:10:33.137Z,60.30
2023-02-06T01:13:00.489Z,60.50
2023-02-06T01:15:27.523Z,60.70
2023-02-06T01:17:54.475Z,60.70
2023-02-06T01:20:23.075Z,60.70
2023-02-06T01:22:50.325Z,60.70
2023-02-06T01:25:17.416Z,60.60
2023-02-06T01:27:44.800Z,60.60
2023-02-06T01:30:12.310Z,60.60
2023-02-06T01:32:41.338Z,60.60
2023-02-06T01:35:10.640Z,60.60
2023-02-06T01:37:39.248Z,60.70
2023-02-06T01:40:14.016Z,60.70
2023-02-06T01:42:41.151Z,60.70
2023-02-06T01:45:26.414Z,60.70
2023-02-06T01:48:02.289Z,60.60
2023-02-06T01:50:32.500Z,60.70
2023-02-06T01:53:00.207Z,60.80
2023-02-06T01:55:27.648Z,60.90
2023-02-06T01:57:54.867Z,60.90
2023-02-06T02:00:21.958Z,60.90
2023-02-06T02:02:49.988Z,61.00
2023-02-06T02:05:19.178Z,61.00
2023-02-06T02:08:01.315Z,61.10
2023-02-06T02:10:30.174Z,61.20
2023-02-06T02:12:57.425Z,61.20
2023-02-06T02:15:47.043Z,61.10
2023-02-06T02:18:29.047Z,61.10
2023-02-06T02:21:14.242Z,61.00
2023-02-06T02:23:58.465Z,60.90
2023-02-06T02:26:55.284Z,60.80
2023-02-06T02:29:49.148Z,60.90
2023-02-06T02:32:45.664Z,61.00
2023-02-06T02:35:30.152Z,61.10
2023-02-06T02:38:15.545Z,61.00
2023-02-06T02:41:39.715Z,61.00
2023-02-06T02:44:39.307Z,61.10
2023-02-06T02:47:10.311Z,61.20
2023-02-06T02:49:41.651Z,61.00
2023-02-06T02:52:11.594Z,61.00
2023-02-06T02:54:38.522Z,61.00
2023-02-06T02:57:13.378Z,60.80
2023-02-06T02:59:45.822Z,60.80
2023-02-06T03:02:21.470Z,60.70
2023-02-06T03:05:01.802Z,60.60
2023-02-06T03:07:57.965Z,60.60
2023-02-06T03:10:52.755Z,60.80
2023-02-06T03:13:31.828Z,61.00
2023-02-06T03:16:19.437Z,61.20
2023-02-06T03:18:56.044Z,61.20
2023-02-06T03:21:25.278Z,61.20
2023-02-06T03:23:58.045Z,61.10
2023-02-06T03:26:29.841Z,61.10
2023-02-06T03:29:01.197Z,61.10
2023-02-06T03:31:55.543Z,61.00
2023-02-06T03:34:35.190Z,61.10
2023-02-06T03:37:02.160Z,61.20
2023-02-06T03:39:29.815Z,61.20
2023-02-06T03:41:59.419Z,61.30
2023-02-06T03:44:31.780Z,61.30
2023-02-06T03:47:00.746Z,61.30
2023-02-06T03:49:31.174Z,61.50
2023-02-06T03:52:14.951Z,62.40
2023-02-06T03:54:47.751Z,61.60
2023-02-06T03:57:19.408Z,61.80
2023-02-06T03:59:47.152Z,62.00
2023-02-06T04:02:16.258Z,62.30
2023-02-06T04:04:45.559Z,63.60
2023-02-06T04:07:24.898Z,62.80
2023-02-06T04:09:52.612Z,62.80
2023-02-06T04:12:21.785Z,62.90
2023-02-06T04:14:48.911Z,62.90
2023-02-06T04:17:31.360Z,62.60
2023-02-06T04:20:03.876Z,62.50
2023-02-06T04:22:31.054Z,62.40
2023-02-06T04:24:58.027Z,62.40
2023-02-06T04:27:25.027Z,63.30
2023-02-06T04:29:51.933Z,62.60
2023-02-06T04:32:19.042Z,62.80
2023-02-06T04:34:45.937Z,62.90
2023-02-06T04:37:13.002Z,63.00
2023-02-06T04:39:39.992Z,63.00
2023-02-06T04:42:07.923Z,62.90
2023-02-06T04:44:35.082Z,62.80
2023-02-06T04:47:03.337Z,62.60
2023-02-06T04:49:30.528Z,62.70
2023-02-06T04:51:57.719Z,62.90
2023-02-06T04:54:24.688Z,62.80
2023-02-06T04:56:51.852Z,62.80
2023-02-06T04:59:18.881Z,62.70
2023-02-06T05:01:45.988Z,62.70
2023-02-06T05:04:12.965Z,62.70
2023-02-06T05:06:40.148Z,62.80
2023-02-06T05:09:07.408Z,62.80
2023-02-06T05:11:34.386Z,62.80
2023-02-06T05:14:01.391Z,63.00
2023-02-06T05:16:28.752Z,63.00
2023-02-06T05:18:56.624Z,63.00
2023-02-06T05:21:24.937Z,63.10
2023-02-06T05:23:51.922Z,63.20
2023-02-06T05:26:19.437Z,63.20
2023-02-06T05:28:46.420Z,63.30
2023-02-06T05:31:19.900Z,63.40
2023-02-06T05:33:50.488Z,63.40
2023-02-06T05:36:19.532Z,63.40
2023-02-06T05:38:47.902Z,63.50
2023-02-06T05:41:15.938Z,63.70
2023-02-06T05:43:43.324Z,63.80
2023-02-06T05:46:12.945Z,64.00
2023-02-06T05:48:40.814Z,64.00
2023-02-06T05:51:08.011Z,64.00
2023-02-06T05:53:35.237Z,64.20
2023-02-06T05:56:02.567Z,64.30
2023-02-06T05:58:29.697Z,64.30
2023-02-06T06:00:56.838Z,64.20
2023-02-06T06:03:23.830Z,64.20
2023-02-06T06:05:51.085Z,64.40
2023-02-06T06:08:18.076Z,64.50
2023-02-06T06:10:45.016Z,64.60
2023-02-06T06:13:12.081Z,64.60
2023-02-06T06:15:38.995Z,64.60
2023-02-06T06:18:05.949Z,64.60
2023-02-06T06:20:32.887Z,64.70
2023-02-06T06:22:59.821Z,64.70
2023-02-06T06:25:26.876Z,64.80
2023-02-06T06:27:54.146Z,64.90
2023-02-06T06:30:21.497Z,65.00
2023-02-06T06:32:48.464Z,65.00
2023-02-06T06:35:15.614Z,65.00
2023-02-06T06:37:42.593Z,65.10
2023-02-06T06:40:10.176Z,65.10
2023-02-06T06:42:37.485Z,65.10
2023-02-06T06:45:05.449Z,65.20
2023-02-06T06:47:32.497Z,65.10
2023-02-06T06:49:59.449Z,65.10
2023-02-06T06:52:26.686Z,65.20
2023-02-06T06:54:53.833Z,65.10
2023-02-06T06:57:22.057Z,65.10
2023-02-06T06:59:50.175Z,65.20
2023-02-06T07:02:18.156Z,65.10
2023-02-06T07:04:45.220Z,65.10
2023-02-06T07:07:12.346Z,65.20
2023-02-06T07:09:39.450Z,65.20
2023-02-06T07:12:06.766Z,65.20
2023-02-06T07:14:33.674Z,66.10
2023-02-06T07:17:01.821Z,65.20
2023-02-06T07:19:28.826Z,65.30
2023-02-06T07:21:55.882Z,65.30
2023-02-06T07:24:22.816Z,65.40
2023-02-06T07:26:49.799Z,65.50
2023-02-06T07:29:16.764Z,65.60
2023-02-06T07:31:43.853Z,65.50
2023-02-06T07:34:11.077Z,65.50
2023-02-06T07:36:38.263Z,65.60
2023-02-06T07:39:05.345Z,65.70
2023-02-06T07:41:32.446Z,65.80
2023-02-06T07:43:59.428Z,65.90
2023-02-06T07:46:26.668Z,65.90
2023-02-06T07:48:53.724Z,65.90
2023-02-06T07:51:20.964Z,65.90
2023-02-06T07:53:48.500Z,66.00
2023-02-06T07:56:20.375Z,66.00
2023-02-06T07:58:52.447Z,65.90
2023-02-06T08:01:21.100Z,65.90
2023-02-06T08:03:50.863Z,66.00
2023-02-06T08:06:18.676Z,66.00
2023-02-06T08:08:46.432Z,66.00
2023-02-06T08:11:16.483Z,66.10
2023-02-06T08:13:43.914Z,66.00
2023-02-06T08:16:13.744Z,65.80
2023-02-06T08:18:41.245Z,65.90
2023-02-06T08:21:13.147Z,65.80
2023-02-06T08:23:41.113Z,65.90
2023-02-06T08:26:17.153Z,65.90
2023-02-06T08:28:46.582Z,65.80
2023-02-06T08:31:19.672Z,66.10
2023-02-06T08:33:47.407Z,67.10
2023-02-06T08:36:15.806Z,66.20
2023-02-06T08:38:42.973Z,66.30
2023-02-06T08:41:26.408Z,66.30
2023-02-06T08:43:56.400Z,66.30
2023-02-06T08:46:25.611Z,67.00
2023-02-06T08:48:57.002Z,66.00
2023-02-06T08:51:27.919Z,65.90
2023-02-06T08:54:03.514Z,65.90
2023-02-06T08:56:31.655Z,65.80
2023-02-06T08:58:59.863Z,65.80
2023-02-06T09:01:28.561Z,65.70
2023-02-06T09:04:00.456Z,65.80
2023-02-06T09:06:28.709Z,65.80
2023-02-06T09:08:57.342Z,65.70
2023-02-06T09:11:26.008Z,65.60
2023-02-06T09:13:56.150Z,65.60
2023-02-06T09:16:23.585Z,65.30
2023-02-06T09:18:54.206Z,65.30
2023-02-06T09:21:26.018Z,65.20
2023-02-06T09:23:56.650Z,65.30
2023-02-06T09:26:29.247Z,65.30
2023-02-06T09:28:58.686Z,65.60
2023-02-06T09:31:27.212Z,65.80
2023-02-06T09:33:54.644Z,65.90
2023-02-06T09:36:22.528Z,65.90
2023-02-06T09:38:53.651Z,65.90
2023-02-06T09:41:32.409Z,66.00
2023-02-06T09:44:09.383Z,66.10
2023-02-06T09:46:43.307Z,66.00
2023-02-06T09:49:28.172Z,66.10
2023-02-06T09:52:26.325Z,66.10
2023-02-06T09:55:25.767Z,65.90
2023-02-06T09:58:11.288Z,66.00
2023-02-06T10:00:42.218Z,66.00
2023-02-06T10:03:34.807Z,65.80
2023-02-06T10:06:20.228Z,65.70
2023-02-06T10:08:59.172Z,65.80
2023-02-06T10:11:48.490Z,65.80
2023-02-06T10:14:28.281Z,65.90
2023-02-06T10:17:01.221Z,65.90
2023-02-06T10:19:37.419Z,66.00
2023-02-06T10:22:15.736Z,66.00
2023-02-06T10:25:11.764Z,66.00
2023-02-06T10:27:43.034Z,66.20
2023-02-06T10:30:18.744Z,66.00
2023-02-06T10:33:06.460Z,65.80
2023-02-06T10:35:41.095Z,65.80
2023-02-06T10:38:33.503Z,65.60
2023-02-06T10:41:32.319Z,65.50
2023-02-06T10:44:23.067Z,65.40
2023-02-06T10:46:53.618Z,65.40
2023-02-06T10:49:37.792Z,65.50
2023-02-06T10:52:15.093Z,65.40
2023-02-06T10:54:52.304Z,65.20
2023-02-06T10:57:25.135Z,65.20
2023-02-06T10:59:55.813Z,65.10
2023-02-06T11:02:38.828Z,65.30
2023-02-06T11:05:23.753Z,65.20
2023-02-06T11:07:54.740Z,65.10
2023-02-06T11:10:24.372Z,65.00
2023-02-06T11:13:11.014Z,64.90
2023-02-06T11:16:16.807Z,64.90
2023-02-06T11:18:46.566Z,64.90
2023-02-06T11:21:15.626Z,65.10
2023-02-06T11:23:42.861Z,65.30
2023-02-06T11:26:19.905Z,65.40
2023-02-06T11:28:52.792Z,65.90
2023-02-06T11:31:36.343Z,65.90
2023-02-06T11:34:04.750Z,65.70
2023-02-06T11:36:35.447Z,65.40
2023-02-06T11:39:20.512Z,65.20
2023-02-06T11:42:18.985Z,65.10
2023-02-06T11:44:48.692Z,65.10
2023-02-06T11:47:37.553Z,64.90
2023-02-06T11:50:20.462Z,65.10
2023-02-06T11:52:47.709Z,65.30
2023-02-06T11:55:25.917Z,65.60
2023-02-06T11:58:12.985Z,65.30
2023-02-06T12:00:42.324Z,65.30
2023-02-06T12:03:39.245Z,65.60
2023-02-06T12:06:09.282Z,65.70
2023-02-06T12:08:53.473Z,65.80
2023-02-06T12:11:26.103Z,65.50
2023-02-06T12:13:58.510Z,65.50
2023-02-06T12:16:25.687Z,65.80
2023-02-06T12:18:57.310Z,66.00
2023-02-06T12:21:44.385Z,66.10
2023-02-06T12:24:35.089Z,65.80
2023-02-06T12:27:43.394Z,65.10
2023-02-06T12:30:29.049Z,64.60
2023-02-06T12:33:15.950Z,63.90
2023-02-06T12:35:46.496Z,63.90
2023-02-06T12:38:30.204Z,64.30
2023-02-06T12:41:12.464Z,64.70
2023-02-06T12:43:42.256Z,64.60
2023-02-06T12:46:18.759Z,64.60
2023-02-06T12:48:49.618Z,64.70
2023-02-06T12:51:36.343Z,64.60
2023-02-06T12:54:12.557Z,64.40
2023-02-06T12:56:58.528Z,64.30
2023-02-06T13:00:18.425Z,64.60
2023-02-06T13:03:18.069Z,64.30
2023-02-06T13:05:49.656Z,64.00
2023-02-06T13:08:19.690Z,63.70
2023-02-06T13:10:59.677Z,63.50
2023-02-06T13:13:27.018Z,63.10
2023-02-06T13:15:56.639Z,63.00
2023-02-06T13:18:42.089Z,63.00
2023-02-06T13:21:34.012Z,62.80
2023-02-06T13:24:03.993Z,62.40
2023-02-06T13:26:46.369Z,62.10
2023-02-06T13:29:27.582Z,61.90
2023-02-06T13:32:12.928Z,62.30
2023-02-06T13:34:46.959Z,63.20
2023-02-06T13:37:40.728Z,62.40
2023-02-06T13:40:30.855Z,61.70
2023-02-06T13:43:19.771Z,61.80
2023-02-06T13:45:59.419Z,61.70
2023-02-06T13:48:46.830Z,61.50
2023-02-06T13:51:23.587Z,61.30
2023-02-06T13:54:32.094Z,61.40
2023-02-06T13:57:20.980Z,61.50
2023-02-06T14:00:13.849Z,61.00
2023-02-06T14:03:10.517Z,60.80
2023-02-06T14:05:51.616Z,60.90
2023-02-06T14:08:22.532Z,61.00
2023-02-06T14:11:20.266Z,61.00
2023-02-06T14:13:50.318Z,61.20
2023-02-06T14:16:44.346Z,61.20
2023-02-06T14:19:35.487Z,61.10
2023-02-06T14:22:20.771Z,61.00
2023-02-06T14:25:15.981Z,60.60
2023-02-06T14:28:14.135Z,60.50
2023-02-06T14:30:56.167Z,60.60
2023-02-06T14:33:59.778Z,60.90
2023-02-06T14:36:32.652Z,60.90
2023-02-06T14:39:28.587Z,61.10
2023-02-06T14:41:55.924Z,61.40
2023-02-06T14:44:28.678Z,61.40
2023-02-06T14:46:56.688Z,61.10
2023-02-06T14:49:35.567Z,60.90
2023-02-06T14:52:04.190Z,60.60
2023-02-06T14:54:38.522Z,60.50
2023-02-06T14:57:16.530Z,60.70
2023-02-06T14:59:52.070Z,60.40
2023-02-06T15:02:25.683Z,59.50
2023-02-06T15:04:52.858Z,58.70
2023-02-06T15:07:28.475Z,58.90
2023-02-06T15:10:14.105Z,57.90
2023-02-06T15:12:41.897Z,58.30
2023-02-06T15:15:21.610Z,57.00
2023-02-06T15:18:00.620Z,57.20
2023-02-06T15:20:29.489Z,57.80
2023-02-06T15:23:11.649Z,57.60
2023-02-06T15:25:55.956Z,57.50
2023-02-06T15:28:26.893Z,57.50
2023-02-06T15:30:56.791Z,57.50
2023-02-06T15:33:28.360Z,57.50
2023-02-06T15:35:57.693Z,57.90
2023-02-06T15:38:27.275Z,58.00
2023-02-06T15:41:02.391Z,58.10
2023-02-06T15:43:30.050Z,58.30
2023-02-06T15:45:59.976Z,58.50
2023-02-06T15:48:49.810Z,58.70
2023-02-06T15:51:29.264Z,58.70
2023-02-06T15:54:19.637Z,58.70
2023-02-06T15:57:00.562Z,58.50
2023-02-06T15:59:28.617Z,58.70
2023-02-06T16:01:58.160Z,58.70
2023-02-06T16:04:39.754Z,58.60
2023-02-06T16:07:19.870Z,59.50
2023-02-06T16:09:53.069Z,59.00
2023-02-06T16:12:21.447Z,59.00
2023-02-06T16:14:59.134Z,58.80
2023-02-06T16:17:36.313Z,58.80
2023-02-06T16:20:07.767Z,58.80
2023-02-06T16:22:38.357Z,58.80
2023-02-06T16:25:28.912Z,58.80
2023-02-06T16:27:56.492Z,59.00
2023-02-06T16:30:33.012Z,59.20
2023-02-06T16:33:09.658Z,59.30
2023-02-06T16:35:36.719Z,59.60
2023-02-06T16:38:03.569Z,59.50
2023-02-06T16:40:30.652Z,59.50
2023-02-06T16:42:57.700Z,59.50
2023-02-06T16:45:27.511Z,59.60
2023-02-06T16:47:54.938Z,59.70
2023-02-06T16:50:22.575Z,59.90
2023-02-06T16:52:57.986Z,60.00
2023-02-06T16:55:26.501Z,60.10
2023-02-06T16:57:56.852Z,61.10
2023-02-06T17:00:29.461Z,60.40
2023-02-06T17:02:58.627Z,60.60
2023-02-06T17:05:28.298Z,60.80
2023-02-06T17:07:55.590Z,60.90
2023-02-06T17:10:25.672Z,61.20
2023-02-06T17:12:53.175Z,61.30
2023-02-06T17:15:20.581Z,61.60
2023-02-06T17:17:47.691Z,61.70
2023-02-06T17:20:37.245Z,61.50
2023-02-06T17:23:05.313Z,61.70
2023-02-06T17:25:32.869Z,62.50
2023-02-06T17:28:00.430Z,61.80
2023-02-06T17:30:27.993Z,62.00
2023-02-06T17:32:56.345Z,62.10
2023-02-06T17:35:23.374Z,62.10
2023-02-06T17:37:51.739Z,62.20
2023-02-06T17:40:28.733Z,62.30
2023-02-06T17:42:57.010Z,62.20
2023-02-06T17:45:24.283Z,62.40
2023-02-06T17:47:52.036Z,62.40
2023-02-06T17:50:21.470Z,62.30
2023-02-06T17:52:49.332Z,62.40
2023-02-06T17:55:16.811Z,62.50
2023-02-06T17:57:43.818Z,62.60
2023-02-06T18:00:15.523Z,62.50
2023-02-06T18:02:43.617Z,62.70
2023-02-06T18:05:11.456Z,62.90
2023-02-06T18:07:39.291Z,62.80
2023-02-06T18:10:07.509Z,63.00
2023-02-06T18:12:35.126Z,63.20
2023-02-06T18:15:02.223Z,63.20
2023-02-06T18:17:29.692Z,63.20
2023-02-06T18:19:57.364Z,63.20
2023-02-06T18:22:24.496Z,63.40
2023-02-06T18:24:51.644Z,63.40
2023-02-06T18:27:19.949Z,63.50
2023-02-06T18:29:50.324Z,63.40
2023-02-06T18:32:19.433Z,63.40
2023-02-06T18:34:46.626Z,63.40
2023-02-06T18:37:13.887Z,63.40
2023-02-06T18:39:40.954Z,63.50
2023-02-06T18:42:26.609Z,63.50
2023-02-06T18:44:53.683Z,63.60
2023-02-06T18:47:20.784Z,63.70
2023-02-06T18:49:47.874Z,63.80
2023-02-06T18:52:15.031Z,63.80
2023-02-06T18:54:42.709Z,63.80
2023-02-06T18:57:10.000Z,63.80
2023-02-06T18:59:37.088Z,63.80
2023-02-06T19:02:04.316Z,63.90
2023-02-06T19:04:31.580Z,63.90
2023-02-06T19:06:58.641Z,64.00
2023-02-06T19:09:25.844Z,64.10
2023-02-06T19:11:53.031Z,64.20
2023-02-06T19:14:22.649Z,64.00
2023-02-06T19:16:51.684Z,63.90
2023-02-06T19:19:18.910Z,64.00
2023-02-06T19:21:46.204Z,64.00
2023-02-06T19:24:20.264Z,64.10
2023-02-06T19:26:47.195Z,64.00
2023-02-06T19:29:19.345Z,64.10
2023-02-06T19:31:51.226Z,64.10
2023-02-06T19:34:18.246Z,64.10
2023-02-06T19:36:45.479Z,64.10
2023-02-06T19:39:13.747Z,64.00
2023-02-06T19:41:40.909Z,64.10
2023-02-06T19:44:11.243Z,64.20
2023-02-06T19:46:39.784Z,64.20
2023-02-06T19:49:08.743Z,64.40
2023-02-06T19:51:40.186Z,64.40
2023-02-06T19:54:07.531Z,64.50
2023-02-06T19:56:40.364Z,64.40
2023-02-06T19:59:18.018Z,64.30
2023-02-06T20:01:50.518Z,64.10
2023-02-06T20:04:18.528Z,64.10
2023-02-06T20:06:45.596Z,64.10
2023-02-06T20:09:14.791Z,64.10
2023-02-06T20:11:42.730Z,64.00
2023-02-06T20:14:10.494Z,64.00
2023-02-06T20:16:39.313Z,63.80
2023-02-06T20:19:08.883Z,63.90
2023-02-06T20:21:39.313Z,64.10
2023-02-06T20:24:09.032Z,63.80
2023-02-06T20:26:38.805Z,63.90
2023-02-06T20:29:07.738Z,64.10
2023-02-06T20:31:35.758Z,64.40
2023-02-06T20:34:03.188Z,64.60
2023-02-06T20:36:30.266Z,64.70
2023-02-06T20:38:59.387Z,64.90
2023-02-06T20:41:29.716Z,64.90
2023-02-06T20:43:58.098Z,64.80
2023-02-06T20:46:26.452Z,64.70
2023-02-06T20:48:59.399Z,64.50
2023-02-06T20:51:27.257Z,64.30
2023-02-06T20:53:54.697Z,64.10
2023-02-06T20:56:22.790Z,64.00
2023-02-06T20:58:51.313Z,64.00
2023-02-06T21:01:30.804Z,64.10
2023-02-06T21:04:03.978Z,64.80
2023-02-06T21:06:31.700Z,63.90
2023-02-06T21:09:01.589Z,63.90
2023-02-06T21:11:30.782Z,64.00
2023-02-06T21:14:00.233Z,64.10
2023-02-06T21:16:28.713Z,64.30
2023-02-06T21:18:57.432Z,64.10
2023-02-06T21:21:26.312Z,64.20
2023-02-06T21:23:55.940Z,64.20
2023-02-06T21:26:23.968Z,64.10
2023-02-06T21:28:51.857Z,64.20
2023-02-06T21:31:25.136Z,64.10
2023-02-06T21:33:52.694Z,64.10
2023-02-06T21:36:21.286Z,64.40
2023-02-06T21:38:48.435Z,64.40
2023-02-06T21:41:18.935Z,64.40
2023-02-06T21:43:46.557Z,64.40
2023-02-06T21:46:14.215Z,64.40
2023-02-06T21:48:42.655Z,64.40
2023-02-06T21:51:15.175Z,64.30
2023-02-06T21:53:43.435Z,64.30
2023-02-06T21:56:22.966Z,64.30
2023-02-06T21:58:50.595Z,64.30
2023-02-06T22:01:26.402Z,64.40
2023-02-06T22:03:54.113Z,64.50
2023-02-06T22:06:21.513Z,64.30
2023-02-06T22:08:53.623Z,64.30
2023-02-06T22:11:26.117Z,64.30
2023-02-06T22:13:56.988Z,64.30
2023-02-06T22:16:24.604Z,64.20
2023-02-06T22:18:52.045Z,64.20
2023-02-06T22:21:25.362Z,64.10
2023-02-06T22:23:55.435Z,64.20
2023-02-06T22:26:22.400Z,64.00
2023-02-06T22:28:49.977Z,63.90
2023-02-06T22:31:28.866Z,64.00
2023-02-06T22:33:56.938Z,64.00
2023-02-06T22:36:27.914Z,64.00
2023-02-06T22:39:04.530Z,64.10
2023-02-06T22:41:31.546Z,64.00
2023-02-06T22:43:58.795Z,64.10
2023-02-06T22:46:32.627Z,64.10
2023-02-06T22:49:00.479Z,64.20
2023-02-06T22:51:28.147Z,64.10
2023-02-06T22:53:55.571Z,63.90
2023-02-06T22:56:29.479Z,64.00
2023-02-06T22:59:06.054Z,64.10
2023-02-06T23:01:59.606Z,64.00
2023-02-06T23:04:30.155Z,64.00
2023-02-06T23:06:57.672Z,63.80
2023-02-06T23:09:27.428Z,63.70
2023-02-06T23:11:55.565Z,63.70
2023-02-06T23:14:22.555Z,63.70
2023-02-06T23:16:49.644Z,63.90
2023-02-06T23:19:17.506Z,63.70
2023-02-06T23:21:46.501Z,63.70
2023-02-06T23:24:14.794Z,63.80
2023-02-06T23:26:43.999Z,64.40
2023-02-06T23:29:15.744Z,63.90
2023-02-06T23:31:43.579Z,63.80
2023-02-06T23:34:10.913Z,64.00
2023-02-06T23:36:37.986Z,63.90
2023-02-06T23:39:05.276Z,63.90
2023-02-06T23:41:33.591Z,63.90
2023-02-06T23:44:02.947Z,64.00
2023-02-06T23:46:31.617Z,63.90
2023-02-06T23:48:58.822Z,63.80
2023-02-06T23:51:26.356Z,64.00
2023-02-06T23:53:53.599Z,64.10
2023-02-06T23:56:24.476Z,64.30
2023-02-06T23:58:52.640Z,64.20
